Decoded Metar for KINT (WINSTON-SALEM in NC, USA) (IATA:INT) | Meteo·Mobile Aviation Weather
aviador You're here:

KINT Decoded Metar

WINSTON-SALEM in NC, USA
Report Time2018-09-20 02:54:00
UTC Time2018-09-20 03:14:50
Flight Rules vfr VFR
WindCalm
Visibility9999 m
Phenomena:N/A
Clouds:Few 070 Hf
Expected CloudBase > 800 ft AGL from Temp-Dew spread
CeilingNone
Temp23°C (ISA +10)
Dew Point21°C (89% RH)
QNH1018 hPa
Density Alt2,270 ft
Elevation955 ft
Report Wrong Elevation
Raw Report
KINT 200254Z AUTO 00000KT 10SM FEW070 23/21 A3007 RMK AO2 SLP170
T02330211 51017=

Extra information for KINT:More info

Metar Taf Metar & Taf Last 4 Metars F.Rules Stats Wind Profile Meteogram Temp Stats Airport Information Weather charts Add Link Nearby VenuesMetar ALERT Operation Metar Decoded Social comments

AIRNAV info for KINT